Time;durP1;ratioP1;P1;durP2;ratioP2;P2;SDS_P1;SDS_P2;PMS_P1;PMS_P2;Temp;Humidity;BMP_temperature;BMP_pressure;BME280_temperature;BME280_humidity;BME280_pressure;Samples;Min_cycle;Max_cycle;Signal;HPM_P1;HPM_P2
2022/11/12 00:04:08;;;;;;;;;;;;;;;5.20;100.00;100180.27;213920;1312;25241;-71
2022/11/12 00:09:28;;;;;;;;;;;;;;;5.18;100.00;100198.36;213961;1312;22465;-71
2022/11/12 00:14:54;;;;;;;;;;;;;;;5.17;100.00;100202.84;213973;1312;22424;-70
2022/11/12 00:20:14;;;;;;;;;;;;;;;5.15;100.00;100198.04;213887;1312;25669;-71
2022/11/12 00:25:35;;;;;;;;;;;;;;;5.12;100.00;100203.98;213885;1312;22735;-71
2022/11/12 00:30:56;;;;;;;;;;;;;;;5.08;100.00;100206.31;213894;1312;23718;-71
2022/11/12 00:36:16;;;;;;;;;;;;;;;5.02;100.00;100206.89;213819;1312;22597;-72
2022/11/12 00:41:36;;;;;;;;;;;;;;;4.94;100.00;100208.50;213881;1312;22502;-70
2022/11/12 00:46:57;;;;;;;;;;;;;;;4.89;100.00;100208.38;213750;1312;25307;-70
2022/11/12 00:52:17;;;;;;;;;;;;;;;4.87;100.00;100204.30;213954;1312;25477;-71
2022/11/12 00:57:38;;;;;;;;;;;;;;;4.83;100.00;100208.42;213933;1312;22498;-71
2022/11/12 01:02:58;;;;;;;;;;;;;;;4.80;100.00;100207.33;213844;1312;22454;-71
2022/11/12 01:08:19;;;;;;;;;;;;;;;4.78;100.00;100208.91;213804;1311;22494;-70
2022/11/12 01:13:41;;;;;;;;;;;;;;;4.75;100.00;100212.36;213807;1312;22455;-71
2022/11/12 01:19:05;;;;;;;;;;;;;;;4.70;100.00;100207.33;213864;1312;24278;-70
2022/11/12 01:24:26;;;;;;;;;;;;;;;4.67;100.00;100203.50;213805;1311;22563;-71
2022/11/12 01:29:46;;;;;;;;;;;;;;;4.65;100.00;100206.14;213815;1311;22516;-71
2022/11/12 01:35:07;;;;;;;;;;;;;;;4.62;100.00;100212.89;213875;1310;22460;-71
2022/11/12 01:40:27;;;;;;;;;;;;;;;4.65;100.00;100208.95;213834;1311;22458;-71
2022/11/12 01:45:48;;;;;;;;;;;;;;;4.61;100.00;100212.56;213823;1312;24447;-71
2022/11/12 01:51:10;;;;;;;;;;;;;;;4.55;100.00;100208.10;213837;1312;22492;-71
2022/11/12 01:56:31;;;;;;;;;;;;;;;4.49;100.00;100205.41;213772;1310;22503;-70
2022/11/12 02:01:51;;;;;;;;;;;;;;;4.48;100.00;100206.35;213811;1312;25167;-71
2022/11/12 02:07:11;;;;;;;;;;;;;;;4.46;100.00;100205.46;213773;1312;25315;-71
2022/11/12 02:18:11;;;;;;;;;;;;;;;4.39;100.00;100203.27;213889;1312;24964;-70
2022/11/12 02:23:31;;;;;;;;;;;;;;;4.34;100.00;100202.77;213823;1312;25571;-71
2022/11/12 02:28:52;;;;;;;;;;;;;;;4.29;100.00;100199.18;213891;1312;22774;-71
2022/11/12 02:34:12;;;;;;;;;;;;;;;4.27;100.00;100197.52;213867;1311;24366;-71
2022/11/12 02:39:33;;;;;;;;;;;;;;;4.26;100.00;100206.79;213828;1312;22477;-71
2022/11/12 02:44:53;;;;;;;;;;;;;;;4.21;100.00;100208.68;213836;1304;22487;-71
2022/11/12 02:50:14;;;;;;;;;;;;;;;4.16;100.00;100201.28;213903;1310;22657;-71
2022/11/12 02:55:34;;;;;;;;;;;;;;;4.12;100.00;100208.24;213955;1304;22492;-71
2022/11/12 03:00:55;;;;;;;;;;;;;;;4.09;100.00;100214.98;214007;1312;24362;-74
2022/11/12 03:06:17;;;;;;;;;;;;;;;4.05;100.00;100209.65;213940;1312;22574;-72
2022/11/12 03:11:38;;;;;;;;;;;;;;;4.02;100.00;100205.02;213922;1312;22479;-71
2022/11/12 03:16:58;;;;;;;;;;;;;;;4.00;100.00;100205.91;213862;1312;23830;-70
2022/11/12 03:22:19;;;;;;;;;;;;;;;3.99;100.00;100213.55;213855;1312;22634;-71
2022/11/12 03:27:39;;;;;;;;;;;;;;;3.96;100.00;100214.46;213896;1311;24449;-71
2022/11/12 03:33:00;;;;;;;;;;;;;;;3.95;100.00;100210.05;213872;1311;22447;-71
2022/11/12 03:38:20;;;;;;;;;;;;;;;3.92;100.00;100206.30;213817;1312;22551;-71
2022/11/12 03:43:41;;;;;;;;;;;;;;;3.87;100.00;100201.48;213850;1312;23609;-71
2022/11/12 03:49:01;;;;;;;;;;;;;;;3.84;100.00;100197.48;213847;1311;24735;-71
2022/11/12 03:54:22;;;;;;;;;;;;;;;3.80;100.00;100193.25;213886;1312;22954;-71
2022/11/12 03:59:42;;;;;;;;;;;;;;;3.75;100.00;100187.07;213884;1311;22510;-71
2022/11/12 04:10:43;;;;;;;;;;;;;;;3.66;100.00;100192.12;213896;1312;22917;-71
2022/11/12 04:21:50;;;;;;;;;;;;;;;3.57;100.00;100186.63;213824;1312;22442;-71
2022/11/12 04:27:15;;;;;;;;;;;;;;;3.54;100.00;100182.11;213790;1310;22468;-71
2022/11/12 04:32:37;;;;;;;;;;;;;;;3.51;100.00;100179.02;213856;1312;22454;-71
2022/11/12 04:37:57;;;;;;;;;;;;;;;3.46;100.00;100180.00;213832;1312;22477;-71
2022/11/12 04:48:57;;;;;;;;;;;;;;;3.39;100.00;100173.16;213838;1312;24319;-71
2022/11/12 04:54:17;;;;;;;;;;;;;;;3.32;100.00;100175.50;213835;1311;23314;-71
2022/11/12 04:59:38;;;;;;;;;;;;;;;3.25;100.00;100167.58;213836;1304;22457;-70
2022/11/12 05:04:59;;;;;;;;;;;;;;;3.21;100.00;100175.99;213846;1312;22474;-71
2022/11/12 05:10:19;;;;;;;;;;;;;;;3.19;100.00;100178.17;213827;1312;22581;-71
2022/11/12 05:15:42;;;;;;;;;;;;;;;3.17;100.00;100178.38;213831;1312;24255;-69
2022/11/12 05:22:04;;;;;;;;;;;;;;;3.16;100.00;100177.11;214000;1306;22466;-72
2022/11/12 05:26:42;;;;;;;;;;;;;;;3.15;100.00;100176.91;213899;1312;22411;-71
2022/11/12 05:32:03;;;;;;;;;;;;;;;3.13;100.00;100177.69;213805;1312;22460;-71
2022/11/12 05:37:23;;;;;;;;;;;;;;;3.11;100.00;100181.51;213877;1312;26507;-71
2022/11/12 05:42:44;;;;;;;;;;;;;;;3.08;100.00;100183.42;213838;1312;25128;-72
2022/11/12 05:48:05;;;;;;;;;;;;;;;3.06;100.00;100194.27;213899;1311;25375;-72
2022/11/12 05:53:25;;;;;;;;;;;;;;;3.03;100.00;100202.77;213832;1312;24421;-70
2022/11/12 05:58:45;;;;;;;;;;;;;;;3.00;100.00;100205.77;213868;1312;25395;-71
2022/11/12 06:04:06;;;;;;;;;;;;;;;2.97;100.00;100206.52;213707;1312;22895;-71
2022/11/12 06:09:26;;;;;;;;;;;;;;;2.94;100.00;100209.66;213770;1312;22463;-71
2022/11/12 06:14:47;;;;;;;;;;;;;;;2.93;100.00;100218.78;213880;1298;25459;-70
2022/11/12 06:20:07;;;;;;;;;;;;;;;2.94;100.00;100219.80;213842;1312;22511;-71
2022/11/12 06:25:27;;;;;;;;;;;;;;;2.98;100.00;100225.54;213820;1311;24543;-71
2022/11/12 06:30:48;;;;;;;;;;;;;;;3.01;100.00;100232.64;213813;1310;22461;-71
2022/11/12 06:36:09;;;;;;;;;;;;;;;3.02;100.00;100234.59;213743;1311;22919;-72
2022/11/12 06:41:29;;;;;;;;;;;;;;;3.01;100.00;100235.96;213885;1311;24468;-71
2022/11/12 06:46:50;;;;;;;;;;;;;;;3.01;100.00;100237.68;213891;1312;25235;-71
2022/11/12 06:52:10;;;;;;;;;;;;;;;3.08;100.00;100243.14;213905;1311;25229;-70
2022/11/12 06:57:36;;;;;;;;;;;;;;;3.17;100.00;100245.83;213857;1312;22492;-72
2022/11/12 07:02:56;;;;;;;;;;;;;;;3.29;100.00;100247.14;213774;1304;22537;-71
2022/11/12 07:08:17;;;;;;;;;;;;;;;3.47;100.00;100244.11;213868;1312;22966;-71
2022/11/12 07:13:38;;;;;;;;;;;;;;;3.79;100.00;100252.80;213906;1312;24478;-71
2022/11/12 07:18:58;;;;;;;;;;;;;;;3.96;100.00;100250.73;213859;1312;22450;-71
2022/11/12 07:24:18;;;;;;;;;;;;;;;4.10;100.00;100248.45;213781;1298;22454;-72
2022/11/12 07:29:39;;;;;;;;;;;;;;;4.27;100.00;100249.43;213844;1312;22491;-71
2022/11/12 07:35:07;;;;;;;;;;;;;;;4.38;100.00;100249.02;213891;1312;22970;-71
2022/11/12 07:40:27;;;;;;;;;;;;;;;4.51;100.00;100249.09;213876;1312;22598;-71
2022/11/12 07:45:48;;;;;;;;;;;;;;;4.84;100.00;100246.64;213849;1312;25373;-72
2022/11/12 07:51:14;;;;;;;;;;;;;;;5.07;100.00;100250.17;213835;1311;26012;-71
2022/11/12 07:56:34;;;;;;;;;;;;;;;5.23;100.00;100252.38;213845;1311;22460;-72
2022/11/12 08:01:55;;;;;;;;;;;;;;;5.40;100.00;100256.21;213875;1312;24259;-71
2022/11/12 08:07:15;;;;;;;;;;;;;;;5.57;100.00;100251.97;213872;1312;25367;-72
2022/11/12 08:12:36;;;;;;;;;;;;;;;5.73;100.00;100256.08;213987;1306;23199;-71
2022/11/12 08:17:57;;;;;;;;;;;;;;;5.94;100.00;100264.52;214003;1303;22600;-71
2022/11/12 08:23:17;;;;;;;;;;;;;;;6.72;100.00;100267.60;213841;1312;22458;-71
2022/11/12 08:28:38;;;;;;;;;;;;;;;7.08;100.00;100266.34;214031;1312;22480;-72
2022/11/12 08:34:10;;;;;;;;;;;;;;;7.25;100.00;100269.09;213844;1312;22514;-71
2022/11/12 08:39:31;;;;;;;;;;;;;;;7.33;100.00;100270.19;213857;1312;22449;-71
2022/11/12 08:44:51;;;;;;;;;;;;;;;7.47;100.00;100270.95;213806;1312;22915;-71
2022/11/12 08:50:12;;;;;;;;;;;;;;;7.64;100.00;100277.16;213768;1311;22506;-72
2022/11/12 08:55:33;;;;;;;;;;;;;;;7.88;100.00;100280.89;213839;1312;22445;-72
2022/11/12 09:00:54;;;;;;;;;;;;;;;8.11;99.89;100277.55;213744;1312;25546;-72
2022/11/12 09:06:15;;;;;;;;;;;;;;;8.37;99.88;100292.83;213864;1312;22484;-71
2022/11/12 09:11:35;;;;;;;;;;;;;;;8.65;99.26;100288.52;213837;1312;22784;-71
2022/11/12 09:16:56;;;;;;;;;;;;;;;8.90;98.67;100289.61;213818;1312;25392;-72
2022/11/12 09:22:16;;;;;;;;;;;;;;;9.17;98.07;100285.71;213869;1311;22582;-71
2022/11/12 09:27:36;;;;;;;;;;;;;;;9.40;97.24;100283.72;213844;1312;25948;-72
2022/11/12 09:32:57;;;;;;;;;;;;;;;9.64;97.29;100283.29;213861;1312;26013;-71
2022/11/12 09:38:18;;;;;;;;;;;;;;;9.89;97.09;100285.56;213962;1311;25397;-71
2022/11/12 09:43:44;;;;;;;;;;;;;;;10.13;96.86;100285.08;213888;1312;25250;-71
2022/11/12 09:49:13;;;;;;;;;;;;;;;10.35;96.19;100282.36;213767;1312;22596;-72
2022/11/12 09:54:34;;;;;;;;;;;;;;;10.56;95.65;100280.70;213753;1312;22468;-71
2022/11/12 09:59:55;;;;;;;;;;;;;;;10.77;95.01;100282.42;213837;1304;22739;-71
2022/11/12 10:05:16;;;;;;;;;;;;;;;10.99;94.70;100276.73;213913;1312;24545;-71
2022/11/12 10:10:43;;;;;;;;;;;;;;;11.17;94.25;100273.45;213861;1311;22503;-72
2022/11/12 10:21:57;;;;;;;;;;;;;;;11.52;92.19;100277.70;213893;1312;22500;-72
2022/11/12 10:27:19;;;;;;;;;;;;;;;11.65;91.96;100268.51;213779;1297;24042;-71
2022/11/12 10:32:42;;;;;;;;;;;;;;;11.71;90.60;100272.41;213812;1311;22564;-71
2022/11/12 10:38:10;;;;;;;;;;;;;;;11.84;90.61;100268.45;213782;1304;22482;-71
2022/11/12 10:43:30;;;;;;;;;;;;;;;11.98;90.18;100267.98;213853;1304;25331;-71
2022/11/12 10:49:05;;;;;;;;;;;;;;;12.16;90.43;100269.29;213818;1312;25268;-72
2022/11/12 10:54:26;;;;;;;;;;;;;;;12.33;90.13;100274.20;213798;1312;24281;-72
2022/11/12 10:59:46;;;;;;;;;;;;;;;12.47;89.81;100269.24;213879;1312;22458;-71
2022/11/12 11:05:26;;;;;;;;;;;;;;;12.59;89.05;100264.66;213850;1311;22486;-71
2022/11/12 11:10:47;;;;;;;;;;;;;;;12.67;87.78;100271.46;213891;1312;23836;-72
2022/11/12 11:16:11;;;;;;;;;;;;;;;12.68;87.40;100262.80;213875;1312;24278;-71
2022/11/12 11:21:34;;;;;;;;;;;;;;;12.75;86.87;100263.30;213839;1312;22575;-70
2022/11/12 11:27:27;;;;;;;;;;;;;;;12.85;86.99;100264.43;213839;1311;24267;-71
2022/11/12 11:33:02;;;;;;;;;;;;;;;12.95;86.64;100267.15;213812;1312;22472;-71
2022/11/12 11:38:29;;;;;;;;;;;;;;;13.03;86.12;100266.56;213837;1312;26022;-71
2022/11/12 11:43:56;;;;;;;;;;;;;;;13.12;85.88;100263.71;213814;1312;25264;-71
2022/11/12 11:49:29;;;;;;;;;;;;;;;13.22;85.50;100260.44;213828;1311;25384;-71
2022/11/12 11:54:52;;;;;;;;;;;;;;;13.31;84.98;100252.58;213887;1312;23071;-72
2022/11/12 12:00:18;;;;;;;;;;;;;;;13.37;83.89;100252.60;213886;1312;22568;-70
2022/11/12 12:05:41;;;;;;;;;;;;;;;13.42;83.56;100251.89;213809;1312;25245;-69
2022/11/12 12:11:06;;;;;;;;;;;;;;;13.46;81.63;100254.58;213835;1306;22459;-71
2022/11/12 12:16:50;;;;;;;;;;;;;;;13.50;82.25;100251.62;213860;1312;25516;-71
2022/11/12 12:22:16;;;;;;;;;;;;;;;13.58;81.84;100246.33;213797;1310;23239;-71
2022/11/12 12:27:41;;;;;;;;;;;;;;;13.60;81.65;100240.88;213832;1304;22465;-72
2022/11/12 12:33:14;;;;;;;;;;;;;;;13.56;80.89;100235.51;213821;1312;22467;-72
2022/11/12 12:38:37;;;;;;;;;;;;;;;13.50;79.86;100240.69;213789;1311;22423;-72
2022/11/12 12:44:01;;;;;;;;;;;;;;;13.46;79.44;100237.08;213778;1312;22577;-71
2022/11/12 12:49:28;;;;;;;;;;;;;;;13.40;79.52;100232.30;213794;1312;23030;-72
2022/11/12 12:54:51;;;;;;;;;;;;;;;13.39;79.52;100224.87;213846;1312;24366;-70
2022/11/12 13:00:31;;;;;;;;;;;;;;;13.38;79.43;100222.89;213913;1311;22455;-71
2022/11/12 13:06:05;;;;;;;;;;;;;;;13.35;79.00;100214.47;213937;1309;22499;-71
2022/11/12 13:17:39;;;;;;;;;;;;;;;13.17;78.49;100208.50;213875;1312;24256;-71
2022/11/12 13:23:00;;;;;;;;;;;;;;;13.12;78.25;100204.69;213828;1311;22742;-70
2022/11/12 13:28:20;;;;;;;;;;;;;;;13.06;78.34;100206.36;213913;1312;25386;-71
2022/11/12 13:33:41;;;;;;;;;;;;;;;13.00;78.31;100210.71;213852;1308;22440;-71
2022/11/12 13:39:11;;;;;;;;;;;;;;;12.93;78.20;100208.40;213882;1309;22701;-70
2022/11/12 13:44:34;;;;;;;;;;;;;;;12.83;78.10;100206.04;213861;1312;25496;-70
2022/11/12 13:49:57;;;;;;;;;;;;;;;12.73;78.26;100209.90;213830;1311;22457;-71
2022/11/12 13:55:19;;;;;;;;;;;;;;;12.63;78.41;100208.15;213882;1312;22444;-70
2022/11/12 14:00:39;;;;;;;;;;;;;;;12.55;78.23;100205.83;213848;1312;22573;-71
2022/11/12 14:06:05;;;;;;;;;;;;;;;12.44;78.25;100204.04;213852;1312;22449;-71
2022/11/12 14:11:53;;;;;;;;;;;;;;;12.34;78.39;100198.85;213884;1311;130820;-71
2022/11/12 14:17:16;;;;;;;;;;;;;;;12.23;78.71;100194.20;213885;1310;22448;-71
2022/11/12 14:22:43;;;;;;;;;;;;;;;12.07;78.53;100192.54;213906;1312;22480;-72
2022/11/12 14:28:04;;;;;;;;;;;;;;;11.89;78.60;100186.85;213810;1311;25202;-72
2022/11/12 14:33:25;;;;;;;;;;;;;;;11.69;78.66;100182.36;213887;1304;22453;-71
2022/11/12 14:38:48;;;;;;;;;;;;;;;11.48;78.82;100184.35;213905;1311;24309;-70
2022/11/12 14:44:11;;;;;;;;;;;;;;;11.27;79.09;100186.52;213811;1312;25388;-71
2022/11/12 14:49:39;;;;;;;;;;;;;;;11.04;79.38;100178.48;213822;1312;22470;-70
2022/11/12 14:55:10;;;;;;;;;;;;;;;10.80;79.34;100184.28;213801;1312;22463;-69
2022/11/12 15:00:30;;;;;;;;;;;;;;;10.56;79.27;100177.86;213873;1304;22454;-71
2022/11/12 15:05:53;;;;;;;;;;;;;;;10.34;79.48;100179.55;213770;1312;22479;-72
2022/11/12 15:11:16;;;;;;;;;;;;;;;10.12;79.93;100177.23;213864;1311;24363;-72
2022/11/12 15:16:42;;;;;;;;;;;;;;;9.93;79.98;100176.67;213676;1312;24434;-71
2022/11/12 15:22:03;;;;;;;;;;;;;;;9.73;80.32;100177.22;213845;1312;25236;-71
2022/11/12 15:27:34;;;;;;;;;;;;;;;9.52;80.58;100176.70;213868;1312;22606;-71
2022/11/12 15:33:08;;;;;;;;;;;;;;;9.31;80.90;100178.31;213894;1312;24449;-72
2022/11/12 15:38:34;;;;;;;;;;;;;;;9.10;81.20;100173.09;213885;1312;22586;-72
2022/11/12 15:43:55;;;;;;;;;;;;;;;8.93;81.51;100172.61;213932;1312;22498;-70
2022/11/12 15:49:15;;;;;;;;;;;;;;;8.75;81.57;100174.71;213863;1311;25323;-70
2022/11/12 15:54:36;;;;;;;;;;;;;;;8.58;81.88;100178.27;213928;1311;24459;-71
2022/11/12 16:00:01;;;;;;;;;;;;;;;8.40;82.19;100181.10;213888;1312;22459;-71
2022/11/12 16:05:27;;;;;;;;;;;;;;;8.24;82.45;100189.13;213861;1312;22511;-71
2022/11/12 16:10:48;;;;;;;;;;;;;;;8.08;82.64;100189.39;213860;1312;24088;-71
2022/11/12 16:16:09;;;;;;;;;;;;;;;7.92;82.95;100191.80;213879;1312;22442;-71
2022/11/12 16:21:30;;;;;;;;;;;;;;;7.74;83.16;100196.92;213918;1312;22630;-71
2022/11/12 16:26:50;;;;;;;;;;;;;;;7.56;83.58;100194.67;213854;1312;24363;-71
2022/11/12 16:32:12;;;;;;;;;;;;;;;7.38;83.70;100201.59;213944;1310;25464;-71
2022/11/12 16:37:33;;;;;;;;;;;;;;;7.22;83.91;100194.61;213841;1312;22462;-72
2022/11/12 16:42:53;;;;;;;;;;;;;;;7.08;84.18;100198.58;213763;1312;23339;-70
2022/11/12 16:48:17;;;;;;;;;;;;;;;6.94;84.56;100188.40;213819;1311;25358;-70
2022/11/12 16:53:37;;;;;;;;;;;;;;;6.80;84.76;100197.71;213979;1312;24282;-70
2022/11/12 16:58:58;;;;;;;;;;;;;;;6.68;85.00;100201.73;213866;1312;23005;-70
2022/11/12 17:04:18;;;;;;;;;;;;;;;6.58;85.39;100204.66;213970;1305;25385;-70
2022/11/12 17:09:39;;;;;;;;;;;;;;;6.47;85.67;100201.34;213828;1308;22622;-71
2022/11/12 17:14:59;;;;;;;;;;;;;;;6.38;86.15;100206.52;213886;1312;23799;-70
2022/11/12 17:20:20;;;;;;;;;;;;;;;6.29;86.27;100205.91;213858;1311;25204;-71
2022/11/12 17:25:40;;;;;;;;;;;;;;;6.19;86.28;100202.52;213832;1312;23095;-71
2022/11/12 17:31:01;;;;;;;;;;;;;;;6.10;86.75;100201.07;213796;1312;22485;-71
2022/11/12 17:36:23;;;;;;;;;;;;;;;6.00;86.80;100200.66;213838;1312;23876;-71
2022/11/12 17:41:43;;;;;;;;;;;;;;;5.90;86.87;100194.92;213941;1312;22868;-70
2022/11/12 17:47:04;;;;;;;;;;;;;;;5.81;87.21;100194.66;213802;1311;24501;-70
2022/11/12 17:52:24;;;;;;;;;;;;;;;5.73;87.52;100192.91;213890;1312;22471;-70
2022/11/12 17:57:47;;;;;;;;;;;;;;;5.59;87.19;100200.09;213864;1311;22469;-70
2022/11/12 18:03:07;;;;;;;;;;;;;;;5.44;87.70;100197.66;213882;1312;22588;-71
2022/11/12 18:08:28;;;;;;;;;;;;;;;5.31;87.77;100197.78;213901;1312;24478;-69
2022/11/12 18:13:49;;;;;;;;;;;;;;;5.20;88.50;100189.29;213848;1312;25533;-73
2022/11/12 18:19:09;;;;;;;;;;;;;;;5.13;88.58;100195.89;213946;1311;22603;-71
2022/11/12 18:24:30;;;;;;;;;;;;;;;5.09;89.15;100193.56;213996;1312;24299;-70
2022/11/12 18:29:51;;;;;;;;;;;;;;;5.11;89.48;100191.70;213881;1312;25365;-69
2022/11/12 18:35:11;;;;;;;;;;;;;;;5.14;89.68;100191.96;213912;1312;22900;-70
2022/11/12 18:40:32;;;;;;;;;;;;;;;5.23;90.33;100196.59;213899;1312;23362;-69
2022/11/12 18:45:53;;;;;;;;;;;;;;;5.29;90.31;100207.36;213878;1291;25241;-71
2022/11/12 18:51:14;;;;;;;;;;;;;;;5.41;90.45;100205.02;213970;1312;25542;-71
2022/11/12 18:56:37;;;;;;;;;;;;;;;5.38;90.63;100217.10;213900;1311;22569;-71
2022/11/12 19:01:57;;;;;;;;;;;;;;;5.31;90.82;100219.20;213931;1311;22491;-70
2022/11/12 19:07:18;;;;;;;;;;;;;;;5.21;90.99;100225.92;213965;1311;22447;-70
2022/11/12 19:12:38;;;;;;;;;;;;;;;5.10;91.16;100221.50;213992;1312;24352;-71
2022/11/12 19:18:00;;;;;;;;;;;;;;;5.01;91.27;100222.19;213808;1311;23717;-70
2022/11/12 19:23:20;;;;;;;;;;;;;;;4.93;91.62;100220.45;213822;1312;24267;-71
2022/11/12 19:28:41;;;;;;;;;;;;;;;4.82;91.45;100221.75;213899;1312;23242;-70
2022/11/12 19:34:02;;;;;;;;;;;;;;;4.72;91.70;100231.25;213869;1312;25251;-70
2022/11/12 19:39:22;;;;;;;;;;;;;;;4.62;91.86;100231.92;213895;1312;25482;-71
2022/11/12 19:44:43;;;;;;;;;;;;;;;4.50;91.84;100238.70;213762;1312;25223;-71
2022/11/12 19:50:03;;;;;;;;;;;;;;;4.42;92.31;100242.55;213941;1312;22503;-70
2022/11/12 19:55:24;;;;;;;;;;;;;;;4.35;92.59;100245.27;213917;1312;24244;-70
2022/11/12 20:00:45;;;;;;;;;;;;;;;4.30;92.77;100249.46;213835;1312;22508;-71
2022/11/12 20:06:07;;;;;;;;;;;;;;;4.28;93.02;100243.35;213834;1312;26442;-71
2022/11/12 20:11:28;;;;;;;;;;;;;;;4.38;93.41;100250.90;213842;1312;22452;-72
2022/11/12 20:16:49;;;;;;;;;;;;;;;4.46;93.41;100254.59;213775;1312;22467;-71
2022/11/12 20:22:09;;;;;;;;;;;;;;;4.59;94.32;100251.71;213864;1311;22465;-72
2022/11/12 20:27:30;;;;;;;;;;;;;;;4.72;94.53;100249.13;213893;1303;25360;-72
2022/11/12 20:32:50;;;;;;;;;;;;;;;4.84;95.04;100256.05;213865;1312;22600;-70
2022/11/12 20:38:11;;;;;;;;;;;;;;;4.93;95.06;100260.45;213869;1312;22480;-72
2022/11/12 20:43:31;;;;;;;;;;;;;;;4.96;95.14;100256.94;213886;1311;22539;-71
2022/11/12 20:48:53;;;;;;;;;;;;;;;4.99;95.23;100262.45;213870;1300;22505;-70
2022/11/12 20:54:14;;;;;;;;;;;;;;;5.00;95.65;100260.73;213766;1312;24355;-70
2022/11/12 20:59:39;;;;;;;;;;;;;;;5.00;95.68;100260.35;213784;1312;26262;-71
2022/11/12 21:05:00;;;;;;;;;;;;;;;4.99;95.79;100261.39;213868;1312;24961;-70
2022/11/12 21:10:20;;;;;;;;;;;;;;;5.01;96.22;100261.13;213796;1304;25249;-70
2022/11/12 21:15:44;;;;;;;;;;;;;;;4.99;96.08;100262.13;213853;1311;25818;-70
2022/11/12 21:21:11;;;;;;;;;;;;;;;4.96;96.37;100262.10;213850;1312;22494;-72
2022/11/12 21:26:32;;;;;;;;;;;;;;;4.94;96.36;100262.19;213802;1312;23712;-71
2022/11/12 21:31:52;;;;;;;;;;;;;;;4.91;96.46;100268.63;213856;1312;25224;-71
2022/11/12 21:37:12;;;;;;;;;;;;;;;4.90;96.81;100269.13;213938;1311;22509;-70
2022/11/12 21:42:33;;;;;;;;;;;;;;;4.92;97.19;100266.00;213782;1312;24280;-72
2022/11/12 21:47:53;;;;;;;;;;;;;;;4.91;97.01;100261.16;213819;1303;22596;-72
2022/11/12 21:53:14;;;;;;;;;;;;;;;4.95;97.18;100258.14;213923;1310;22496;-70
2022/11/12 21:58:34;;;;;;;;;;;;;;;5.02;97.49;100254.99;213831;1311;25208;-71
2022/11/12 22:03:55;;;;;;;;;;;;;;;5.04;97.69;100258.33;213752;1312;25222;-70
2022/11/12 22:09:21;;;;;;;;;;;;;;;5.08;97.63;100253.77;213759;1306;22452;-70
2022/11/12 22:14:41;;;;;;;;;;;;;;;5.11;98.00;100249.41;213806;1303;24283;-70
2022/11/12 22:20:02;;;;;;;;;;;;;;;5.16;98.29;100243.36;213843;1311;23192;-70
2022/11/12 22:25:22;;;;;;;;;;;;;;;5.20;98.20;100242.60;213872;1312;24497;-71
2022/11/12 22:30:44;;;;;;;;;;;;;;;5.21;98.18;100240.70;213937;1312;22605;-72
2022/11/12 22:36:09;;;;;;;;;;;;;;;5.22;98.07;100241.28;213890;1303;23773;-70
2022/11/12 22:41:30;;;;;;;;;;;;;;;5.24;98.45;100235.16;213765;1312;25242;-71
2022/11/12 22:46:51;;;;;;;;;;;;;;;5.26;98.51;100242.30;213921;1310;22454;-71
2022/11/12 22:52:11;;;;;;;;;;;;;;;5.30;98.56;100238.06;213850;1312;22540;-71
2022/11/12 22:57:32;;;;;;;;;;;;;;;5.32;98.46;100246.30;213889;1312;22721;-73
2022/11/12 23:02:52;;;;;;;;;;;;;;;5.37;98.78;100242.29;213849;1312;25295;-71
2022/11/12 23:08:13;;;;;;;;;;;;;;;5.41;98.72;100237.02;213767;1312;22769;-70
2022/11/12 23:13:33;;;;;;;;;;;;;;;5.45;98.86;100228.84;213878;1312;22490;-71
2022/11/12 23:18:54;;;;;;;;;;;;;;;5.46;98.89;100228.34;213802;1312;22739;-70
2022/11/12 23:24:14;;;;;;;;;;;;;;;5.49;98.93;100225.41;213890;1312;25289;-70
2022/11/12 23:29:36;;;;;;;;;;;;;;;5.52;99.20;100227.85;213870;1312;22456;-70
2022/11/12 23:34:56;;;;;;;;;;;;;;;5.49;98.64;100225.27;213917;1312;22506;-71
2022/11/12 23:40:17;;;;;;;;;;;;;;;5.47;98.73;100224.75;213905;1311;22455;-71
2022/11/12 23:45:38;;;;;;;;;;;;;;;5.45;98.89;100222.67;213758;1312;22485;-71
2022/11/12 23:51:02;;;;;;;;;;;;;;;5.44;98.69;100223.77;213914;1312;24433;-71
2022/11/12 23:56:23;;;;;;;;;;;;;;;5.43;98.89;100223.80;213892;1312;24397;-70
